• Join FlightAware (Why Join?)
  • Login
  • US Flag 
11:35PM EDT


 

Airport Tracker/Info


-or-


 

Live Flight TrackerFlight Track Log ✈ PDT4314 ✈ 16-Feb-2014 ✈ KPHL - KBGM

Flight Track Log - Related Links

Times and Time Zones

All times are in EST time to prevent confusion due to time zone crossing. See the PDT4314 flight status page for this flight to view local times or setup timezone preferences in your user account.

Time Position Orientation Groundspeed Altitude Reporting Facility
EST Latitude Longitude Course Direction KTS MPH feet Rate Location/Type
05:43PM 39.9000 -75.2333 311° West 115 132 600  Level Philadelphia TRACON
05:44PM 39.9000 -75.2500 270° West 113 130 1,200 1,380 Climbing Philadelphia TRACON
05:45PM 39.9167 -75.3000 294° West 147 169 2,400 1,260 Climbing Philadelphia TRACON
05:46PM 40.0580 -75.4080 323° Northwest  Level FlightAware Approximate
05:46PM 39.9333 -75.3500 294° West 153 176 3,900  Level Philadelphia TRACON
05:47PM 40.1184 -75.4684 323° Northwest  Level FlightAware Approximate
05:47PM 39.9500 -75.4000 294° West 145 167 5,500  Level Philadelphia TRACON
05:48PM 40.1817 -75.5226 311° West  Level FlightAware Approximate
05:48PM 39.9667 -75.4333 303° West 148 170 6,900  Level Philadelphia TRACON
05:49PM 40.2396 -75.5843 311° West  Level FlightAware Approximate
05:49PM 40.0167 -75.4333 360° North 154 177 8,100  Level Philadelphia TRACON
05:50PM 40.0500 -75.4833 311° West 164 189 9,000 420 Climbing Philadelphia TRACON
05:51PM 40.1000 -75.5000 346° North 208 239 9,000 300 Level Philadelphia TRACON
05:52PM 40.1675 -75.5325 340° North 200 230 9,800 720 Climbing New York Center
05:53PM 40.2147 -75.5494 345° North 189 217 10,700 900 Climbing New York Center
05:54PM 40.2508 -75.5872 321° Northwest 161 185 11,700 600 Climbing New York Center
05:55PM 40.2911 -75.6200 328° Northwest 156 180 12,000 240 Climbing New York Center
05:56PM 40.3333 -75.6556 327° Northwest 172 198 12,200 720 Climbing New York Center
05:57PM 40.3675 -75.6881 324° Northwest 172 198 13,500 900 Climbing New York Center
05:58PM 40.4056 -75.7208 327° Northwest 164 189 14,100 540 Climbing New York Center
05:59PM 40.4564 -75.7569 332° Northwest 178 205 14,600 600 Climbing New York Center
06:00PM 40.4942 -75.7953 322° Northwest 178 205 15,400 660 Climbing New York Center
06:01PM 40.5367 -75.8283 329° Northwest 178 205 16,000 300 Climbing New York Center
06:02PM 40.5750 -75.8586 329° Northwest 178 205 16,100  Climbing New York Center
06:03PM 40.6189 -75.9028 323° Northwest 189 217 16,100  Level New York Center
06:04PM 40.6714 -75.9425 330° Northwest 201 231 16,100  Level New York Center
06:06PM 40.7672 -76.0347 324° Northwest 211 243 16,100  Level New York Center
06:07PM 40.8236 -76.0772 330° Northwest 216 249 16,100  Level New York Center
06:08PM 40.8758 -76.1197 328° Northwest 216 249 16,100  Level New York Center
06:09PM 40.9219 -76.1619 325° Northwest 211 243 16,100  Level New York Center
06:10PM 40.9783 -76.2075 329° Northwest 211 243 16,100  Level New York Center
06:11PM 41.0397 -76.2264 347° North 211 243 16,100  Level New York Center
06:12PM 41.1011 -76.2092 12° North 231 266 16,100  Level New York Center
06:13PM 41.1697 -76.2092 360° North 238 274 16,100  Level New York Center
06:14PM 41.2428 -76.2094 360° North 238 274 16,100  Level New York Center
06:15PM 41.3097 -76.2011 North 238 274 16,100  Level New York Center
06:16PM 41.3783 -76.2039 358° North 238 274 16,100 -240 Level New York Center
06:17PM 41.4392 -76.1978 North 238 274 15,700 -900 Descending New York Center
06:18PM 41.5125 -76.1869 North 252 290 14,300 -1,500 Descending New York Center
06:19PM 41.5919 -76.1794 North 262 302 12,700 -1,500 Descending New York Center
06:20PM 41.6625 -76.1825 358° North 256 295 11,400 -1,380 Descending New York Center
06:21PM 41.7294 -76.1769 North 251 289 10,000 -1,200 Descending New York Center
06:22PM 41.7903 -76.1706 North 251 289 9,000 -1,080 Descending New York Center
06:23PM 41.8611 -76.1653 North 235 270 7,900 -1,260 Descending New York Center
06:24PM 41.9242 -76.1564 North 235 270 6,500 -1,380 Descending New York Center
06:25PM 41.9889 -76.1533 North 235 270 5,200 -1,020 Descending New York Center
06:26PM 42.0344 -76.1122 34° Northeast 219 252 4,500 -660 Descending New York Center
06:27PM 42.0775 -76.0319 54° Northeast 225 259 3,900 -480 Descending New York Center
06:28PM 42.1256 -75.9800 39° Northeast 227 261 3,600 -480 Descending New York Center
06:29PM 42.1642 -75.9522 28° Northeast 190 219 3,000 -780 Descending New York Center
06:30PM 42.1978 -75.9492 North 142 163 2,100 4,980 Descending New York Center
06:31PM 42.2339 -75.9325 19° North 142 163 13,000 5,400 Climbing New York Center
06:32PM 42.2722 -75.9131 21° North 142 163 13,000  Level New York Center
06:33PM 42.3083 -75.8964 19° North 142 163 13,000  Level New York Center
06:34PM 42.3317 -75.8842 21° North 142 163 13,000  Level New York Center
06:35PM 42.3317 -75.8842 144° Southeast 142 163 13,000  Level New York Center
06:36PM 42.3317 -75.8842 144° Southeast 142 163 13,000  Level New York Center
06:38PM 42.2671 -75.9247 205° Southwest  Level FlightAware Approximate
06:45PM 42.2000 -75.9667 208° Southwest  Level FlightAware Approximate
06:46PM 42.2084 -75.9796 208° Southwest  Level Estimated
06:47PM 42.2084 -75.9796 208° Southwest  Level Estimated